Time;durP1;ratioP1;P1;durP2;ratioP2;P2;SDS_P1;SDS_P2;PMS_P1;PMS_P2;Temp;Humidity;BMP_temperature;BMP_pressure;BME280_temperature;BME280_humidity;BME280_pressure;Samples;Min_cycle;Max_cycle;Signal;HPM_P1;HPM_P2
2024/04/16 00:02:03;;;;;;;1.27;0.30;;;5.60;99.90;;;;;;5523164;26;20002;-48
2024/04/16 00:04:29;;;;;;;1.00;0.30;;;6.10;99.90;;;;;;5523348;26;20005;-49
2024/04/16 00:06:55;;;;;;;1.83;0.30;;;5.50;99.90;;;;;;5521736;26;20006;-49
2024/04/16 00:09:20;;;;;;;2.67;0.45;;;5.80;99.90;;;;;;5500723;26;20141;-57
2024/04/16 00:11:46;;;;;;;3.35;0.38;;;5.40;99.90;;;;;;5478017;26;20052;-47
2024/04/16 00:14:12;;;;;;;2.83;0.47;;;5.30;99.90;;;;;;5509328;26;20024;-48
2024/04/16 00:16:38;;;;;;;2.08;0.47;;;5.30;99.90;;;;;;5523301;26;20005;-52
2024/04/16 00:19:03;;;;;;;3.30;0.38;;;6.00;99.90;;;;;;5504834;26;20017;-53
2024/04/16 00:21:30;;;;;;;2.97;0.38;;;5.20;99.90;;;;;;5511070;26;20006;-53
2024/04/16 00:23:56;;;;;;;;;;;5.30;99.90;;;;;;5487088;26;20017;-46
2024/04/16 00:26:22;;;;;;;5.15;0.30;;;5.30;99.90;;;;;;5519030;26;19934;-47
2024/04/16 00:28:48;;;;;;;;;;;5.30;99.90;;;;;;5492308;25;20397;-49
2024/04/16 00:31:13;;;;;;;;;;;5.50;99.90;;;;;;5506072;26;20391;-50
2024/04/16 00:33:39;;;;;;;;;;;5.20;99.90;;;;;;5487019;26;19931;-50
2024/04/16 00:36:05;;;;;;;;;;;5.20;99.60;;;;;;5512716;26;20255;-49
2024/04/16 00:38:30;;;;;;;5.15;0.40;;;5.10;99.90;;;;;;5514976;26;19931;-54
2024/04/16 00:40:56;;;;;;;;;;;5.10;99.90;;;;;;5508418;26;20036;-47
2024/04/16 00:43:22;;;;;;;1.63;0.30;;;5.20;99.90;;;;;;5496674;26;19931;-55
2024/04/16 00:45:53;;;;;;;4.50;0.77;;;5.10;99.90;;;;;;5503614;25;20017;-53
2024/04/16 00:48:28;;;;;;;3.28;0.60;;;5.40;99.90;;;;;;5481059;26;20021;-50
2024/04/16 00:50:58;;;;;;;1.15;0.40;;;5.20;99.90;;;;;;5472695;26;20072;-56
2024/04/16 00:53:27;;;;;;;4.40;0.30;;;5.30;99.90;;;;;;5498952;25;20006;-52
2024/04/16 00:55:52;;;;;;;4.30;0.60;;;5.10;99.90;;;;;;5518340;26;20069;-54
2024/04/16 00:58:19;;;;;;;3.83;0.70;;;7.80;99.90;;;;;;5518550;25;20013;-52
2024/04/16 01:00:45;;;;;;;2.08;0.40;;;5.20;99.90;;;;;;5506578;26;20017;-50
2024/04/16 01:03:13;;;;;;;2.90;0.35;;;5.20;99.90;;;;;;5501949;26;20016;-50
2024/04/16 01:05:39;;;;;;;1.98;0.40;;;5.20;99.90;;;;;;5522231;25;20014;-53
2024/04/16 01:08:11;;;;;;;3.97;0.60;;;5.20;99.90;;;;;;5522719;25;20480;-51
2024/04/16 01:10:41;;;;;;;4.88;0.50;;;5.70;99.90;;;;;;5504217;25;20017;-52
2024/04/16 01:13:10;;;;;;;2.97;0.50;;;5.30;99.90;;;;;;5499513;26;20009;-55
2024/04/16 01:15:36;;;;;;;4.63;0.70;;;5.50;99.90;;;;;;5522470;26;20005;-51
2024/04/16 01:18:09;;;;;;;1.90;0.45;;;5.50;99.90;;;;;;5521167;26;20005;-51
2024/04/16 01:20:35;;;;;;;2.78;0.40;;;5.70;99.90;;;;;;5515123;25;20448;-49
2024/04/16 01:23:01;;;;;;;;;;;5.70;99.90;;;;;;5513625;25;20018;-53
2024/04/16 01:25:27;;;;;;;3.13;0.40;;;5.70;99.90;;;;;;5504740;26;19923;-48
2024/04/16 01:27:53;;;;;;;3.75;0.60;;;5.70;99.90;;;;;;5516581;26;20501;-49
2024/04/16 01:30:18;;;;;;;;;;;5.80;99.90;;;;;;5501911;26;20017;-53
2024/04/16 01:32:44;;;;;;;;;;;5.80;99.90;;;;;;5522835;26;19927;-48
2024/04/16 01:35:10;;;;;;;;;;;5.80;99.90;;;;;;5522711;26;20314;-49
2024/04/16 01:37:36;;;;;;;1.73;0.40;;;5.80;99.90;;;;;;5522256;25;19923;-46
2024/04/16 01:40:02;;;;;;;;;;;5.80;99.90;;;;;;5521499;26;20016;-47
2024/04/16 01:42:28;;;;;;;0.85;0.50;;;5.80;99.90;;;;;;5491994;26;20013;-54
2024/04/16 01:44:56;;;;;;;3.20;0.57;;;5.80;99.90;;;;;;5516153;26;20005;-52
2024/04/16 01:47:21;;;;;;;0.77;0.47;;;6.10;99.90;;;;;;5512641;25;20021;-53
2024/04/16 01:49:47;;;;;;;;;;;5.70;99.90;;;;;;5493168;26;20341;-52
2024/04/16 01:52:13;;;;;;;3.63;0.70;;;5.50;99.90;;;;;;5487870;25;19964;-52
2024/04/16 01:54:38;;;;;;;;;;;5.60;99.90;;;;;;5470475;26;20018;-52
2024/04/16 01:57:10;;;;;;;;;;;5.60;99.90;;;;;;5504488;26;20304;-46
2024/04/16 01:59:36;;;;;;;4.45;0.45;;;5.20;99.90;;;;;;5522028;26;20351;-47
2024/04/16 02:02:02;;;;;;;;;;;5.50;99.90;;;;;;5474780;25;19999;-49
2024/04/16 02:04:29;;;;;;;5.05;0.73;;;5.50;99.90;;;;;;5446772;26;20062;-50
2024/04/16 02:06:55;;;;;;;4.53;0.50;;;3.20;99.90;;;;;;5454519;26;20013;-48
2024/04/16 02:09:21;;;;;;;;;;;5.40;99.90;;;;;;5467836;26;20458;-55
2024/04/16 02:11:46;;;;;;;6.20;0.68;;;5.40;99.90;;;;;;5448124;26;19936;-51
2024/04/16 02:14:12;;;;;;;;;;;5.50;99.90;;;;;;5447258;26;20056;-50
2024/04/16 02:16:37;;;;;;;;;;;5.50;99.90;;;;;;5474715;26;19933;-50
2024/04/16 02:19:03;;;;;;;4.60;0.70;;;5.60;99.90;;;;;;5448333;26;19924;-52
2024/04/16 02:21:29;;;;;;;3.92;0.60;;;8.30;99.90;;;;;;5447904;26;20459;-50
2024/04/16 02:23:54;;;;;;;;;;;5.70;99.90;;;;;;5449064;26;20003;-50
2024/04/16 02:26:20;;;;;;;5.88;0.93;;;5.80;99.90;;;;;;5449841;26;19931;-54
2024/04/16 02:28:46;;;;;;;;;;;5.80;99.90;;;;;;5452082;26;20039;-46
2024/04/16 02:31:11;;;;;;;;;;;5.90;99.90;;;;;;5473599;26;20255;-50
2024/04/16 02:33:38;;;;;;;6.85;0.82;;;5.90;99.90;;;;;;5447644;26;19931;-47
2024/04/16 02:36:04;;;;;;;;;;;5.90;99.90;;;;;;5448303;26;20006;-47
2024/04/16 02:38:29;;;;;;;;;;;5.90;99.90;;;;;;5446254;26;19997;-52
2024/04/16 02:40:56;;;;;;;8.82;0.90;;;7.80;99.90;;;;;;5446689;26;19924;-49
2024/04/16 02:43:22;;;;;;;8.63;0.93;;;6.60;99.90;;;;;;5449199;26;20079;-53
2024/04/16 02:45:53;;;;;;;9.43;0.98;;;6.50;99.90;;;;;;5451286;26;20007;-48
2024/04/16 02:48:18;;;;;;;;;;;6.00;99.90;;;;;;5451706;26;20022;-50
2024/04/16 02:50:46;;;;;;;;;;;6.00;99.90;;;;;;5477160;26;20375;-51
2024/04/16 02:53:12;;;;;;;3.75;0.60;;;6.00;99.90;;;;;;5451064;26;19936;-51
2024/04/16 02:55:37;;;;;;;;;;;6.00;99.90;;;;;;5448847;26;20557;-53
2024/04/16 02:58:03;;;;;;;;;;;6.10;99.90;;;;;;5451635;26;19925;-48
2024/04/16 03:00:30;;;;;;;3.25;0.70;;;6.10;99.90;;;;;;5450825;26;19924;-54
2024/04/16 03:02:56;;;;;;;9.20;0.80;;;6.10;99.90;;;;;;5451258;26;20075;-50
2024/04/16 03:05:22;;;;;;;4.18;0.73;;;6.20;99.90;;;;;;5450374;26;20019;-49
2024/04/16 03:07:51;;;;;;;;;;;6.20;99.90;;;;;;5463500;26;20006;-50
2024/04/16 03:10:16;;;;;;;5.60;0.73;;;6.20;99.90;;;;;;5462647;26;19924;-53
2024/04/16 03:12:42;;;;;;;;;;;6.10;99.90;;;;;;5451112;26;20100;-51
2024/04/16 03:15:08;;;;;;;1.17;0.50;;;6.10;99.90;;;;;;5450890;26;19925;-52
2024/04/16 03:17:34;;;;;;;;;;;6.20;99.90;;;;;;5451271;26;20090;-52
2024/04/16 03:20:00;;;;;;;7.63;0.93;;;6.30;99.90;;;;;;5450879;26;19935;-46
2024/04/16 03:22:26;;;;;;;;;;;6.20;99.90;;;;;;5473747;26;20010;-56
2024/04/16 03:24:51;;;;;;;6.72;0.68;;;6.10;99.90;;;;;;5474007;26;19932;-55
2024/04/16 03:27:17;;;;;;;;;;;6.30;99.90;;;;;;5451258;26;20025;-46
2024/04/16 03:30:03;;;;;;;6.30;0.98;;;6.30;99.90;;;;;;5449271;26;20361;-49
2024/04/16 03:32:29;;;;;;;;;;;6.30;99.90;;;;;;5451859;26;20006;-50
2024/04/16 03:34:56;;;;;;;7.30;0.70;;;6.30;99.90;;;;;;5449908;26;19925;-51
2024/04/16 03:37:22;;;;;;;;;;;6.40;99.90;;;;;;5451216;26;20022;-49
2024/04/16 03:39:48;;;;;;;6.22;0.57;;;6.70;99.90;;;;;;5475010;26;20304;-53
2024/04/16 03:42:13;;;;;;;2.55;0.50;;;5.30;99.90;;;;;;5466711;26;20016;-49
2024/04/16 03:44:39;;;;;;;;;;;6.40;99.90;;;;;;5483911;26;20350;-52
2024/04/16 03:47:05;;;;;;;6.75;1.15;;;6.40;99.90;;;;;;5450769;26;19925;-49
2024/04/16 03:49:31;;;;;;;;;;;6.40;99.90;;;;;;5450469;26;20017;-50
2024/04/16 03:51:56;;;;;;;6.95;0.73;;;6.50;99.90;;;;;;5449958;26;19932;-49
2024/04/16 03:54:22;;;;;;;;;;;6.50;99.90;;;;;;5470414;26;20006;-56
2024/04/16 03:56:48;;;;;;;5.60;0.55;;;6.50;99.90;;;;;;5455069;26;19931;-51
2024/04/16 04:02:09;;;;;;;5.53;0.82;;;7.90;99.90;;;;;;5384172;26;19929;-52
2024/04/16 04:04:36;;;;;;;;;;;6.50;99.90;;;;;;5450768;26;20052;-49
2024/04/16 04:07:05;;;;;;;5.65;0.50;;;6.60;99.90;;;;;;5449875;26;19935;-48
2024/04/16 04:09:30;;;;;;;;;;;6.60;99.90;;;;;;5455072;26;20007;-52
2024/04/16 04:11:56;;;;;;;5.13;0.75;;;6.60;99.90;;;;;;5450139;26;19924;-46
2024/04/16 04:14:22;;;;;;;;;;;6.60;99.90;;;;;;5480793;26;20338;-55
2024/04/16 04:16:47;;;;;;;6.55;0.60;;;6.60;99.90;;;;;;5468715;26;19932;-52
2024/04/16 04:19:13;;;;;;;;;;;6.60;99.90;;;;;;5450457;26;20006;-47
2024/04/16 04:21:39;;;;;;;2.72;0.40;;;6.10;99.90;;;;;;5463429;26;20366;-50
2024/04/16 04:24:05;;;;;;;4.13;0.60;;;;;;;;;;5461827;26;20007;-52
2024/04/16 04:26:31;;;;;;;3.28;0.63;;;6.10;99.90;;;;;;5455692;26;20401;-49
2024/04/16 04:28:56;;;;;;;;;;;6.50;99.90;;;;;;5450852;26;20013;-51
2024/04/16 04:31:22;;;;;;;;;;;6.60;99.90;;;;;;5450043;26;19925;-47
2024/04/16 04:33:47;;;;;;;4.43;0.68;;;6.60;99.90;;;;;;5449747;26;19935;-54
2024/04/16 04:36:14;;;;;;;4.65;0.60;;;6.60;99.90;;;;;;5449538;26;20007;-51
2024/04/16 04:38:40;;;;;;;6.13;0.82;;;6.60;99.90;;;;;;5449853;26;20083;-52
2024/04/16 04:41:08;;;;;;;;;;;7.30;99.90;;;;;;5449087;26;20340;-50
2024/04/16 04:43:34;;;;;;;4.25;0.80;;;6.60;99.90;;;;;;5452923;26;19926;-55
2024/04/16 04:45:59;;;;;;;;;;;6.50;99.90;;;;;;5469751;26;20005;-48
2024/04/16 04:48:25;;;;;;;3.33;0.85;;;6.40;99.90;;;;;;5481184;26;19938;-52
2024/04/16 04:50:51;;;;;;;2.63;0.50;;;6.90;99.90;;;;;;5484921;26;20013;-48
2024/04/16 04:53:17;;;;;;;;;;;6.40;99.90;;;;;;5483491;26;20006;-49
2024/04/16 04:55:43;;;;;;;2.67;0.47;;;6.40;99.90;;;;;;5470918;26;20248;-48
2024/04/16 04:58:08;;;;;;;;;;;6.40;99.90;;;;;;5472441;26;20408;-56
2024/04/16 05:00:34;;;;;;;1.08;0.30;;;6.40;99.90;;;;;;5458835;26;19924;-50
2024/04/16 05:03:33;;;;;;;;;;;6.30;99.90;;;;;;5484451;26;20093;-52
2024/04/16 05:05:59;;;;;;;2.25;0.57;;;6.30;99.90;;;;;;5447934;26;19924;-51
2024/04/16 05:08:28;;;;;;;1.92;0.60;;;6.30;99.90;;;;;;5447879;26;20846;-58
2024/04/16 05:10:54;;;;;;;4.22;0.75;;;6.30;99.90;;;;;;5457089;26;20006;-58
2024/04/16 05:13:19;;;;;;;;;;;6.30;99.90;;;;;;5464041;26;20017;-58
2024/04/16 05:15:45;;;;;;;4.22;0.70;;;6.40;99.90;;;;;;5462577;26;19924;-58
2024/04/16 05:18:12;;;;;;;5.47;0.70;;;6.50;99.90;;;;;;5450442;26;20074;-58
2024/04/16 05:20:38;;;;;;;1.67;0.60;;;6.60;99.90;;;;;;5448050;26;20039;-58
2024/04/16 05:26:07;;;;;;;3.08;0.57;;;6.60;99.90;;;;;;5482457;26;20154;-58
2024/04/16 05:28:33;;;;;;;;;;;6.60;99.90;;;;;;5484741;26;20006;-58
2024/04/16 05:30:59;;;;;;;5.00;0.70;;;6.60;99.90;;;;;;5483586;26;19923;-59
2024/04/16 05:33:25;;;;;;;;;;;6.60;99.90;;;;;;5483164;26;20006;-58
2024/04/16 05:35:51;;;;;;;4.85;0.70;;;6.60;99.90;;;;;;5483339;26;20360;-58
2024/04/16 05:38:16;;;;;;;;;;;6.60;99.90;;;;;;5475814;26;20067;-58
2024/04/16 05:40:42;;;;;;;4.85;0.63;;;6.60;99.90;;;;;;5457680;26;20366;-58
2024/04/16 05:43:08;;;;;;;;;;;6.60;99.90;;;;;;5452445;26;20343;-58
2024/04/16 05:45:33;;;;;;;3.65;0.57;;;6.60;99.90;;;;;;5482250;26;20267;-58
2024/04/16 05:47:59;;;;;;;;;;;6.60;99.90;;;;;;5477889;26;20090;-58
2024/04/16 05:50:25;;;;;;;1.73;0.50;;;6.50;99.90;;;;;;5483761;26;20383;-58
2024/04/16 05:52:50;;;;;;;;;;;6.50;99.90;;;;;;5484163;26;20006;-58
2024/04/16 05:55:16;;;;;;;2.53;0.65;;;6.60;99.90;;;;;;5457188;26;19961;-58
2024/04/16 05:57:42;;;;;;;;;;;6.70;99.90;;;;;;5484770;26;20006;-58
2024/04/16 06:00:08;;;;;;;1.95;0.70;;;6.80;99.90;;;;;;5484040;26;19936;-57
2024/04/16 06:02:33;;;;;;;;;;;6.90;99.90;;;;;;5485580;26;20059;-56
2024/04/16 06:04:59;;;;;;;5.15;0.80;;;6.40;99.90;;;;;;5484233;26;20364;-58
2024/04/16 06:07:25;;;;;;;;;;;7.20;99.90;;;;;;5483482;26;20442;-59
2024/04/16 06:09:51;;;;;;;5.30;0.80;;;7.20;99.90;;;;;;5468200;26;19924;-58
2024/04/16 06:12:17;;;;;;;;;;;7.30;99.90;;;;;;5473910;26;20025;-58
2024/04/16 06:14:42;;;;;;;2.35;0.60;;;7.30;99.90;;;;;;5448249;26;19993;-58
2024/04/16 06:17:08;;;;;;;;;;;7.30;99.90;;;;;;5449376;26;20014;-58
2024/04/16 06:19:34;;;;;;;3.15;0.93;;;7.40;99.90;;;;;;5451474;26;19936;-57
2024/04/16 06:21:59;;;;;;;;;;;7.40;99.90;;;;;;5452492;26;20042;-58
2024/04/16 06:24:25;;;;;;;3.63;0.75;;;7.30;99.90;;;;;;5450427;26;19952;-59
2024/04/16 06:26:50;;;;;;;;;;;8.00;99.90;;;;;;5452121;26;20019;-56
2024/04/16 06:29:16;;;;;;;5.95;0.80;;;9.20;99.90;;;;;;5476818;26;20436;-56
2024/04/16 06:31:42;;;;;;;;;;;9.90;99.90;;;;;;5452392;26;20014;-56
2024/04/16 06:34:08;;;;;;;2.60;0.60;;;10.10;99.90;;;;;;5473975;26;19992;-56
2024/04/16 06:36:34;;;;;;;3.40;0.50;;;10.30;99.90;;;;;;5453890;26;20030;-56
2024/04/16 06:38:59;;;;;;;;;;;10.10;99.90;;;;;;5452092;26;20022;-54
2024/04/16 06:41:25;;;;;;;1.40;0.50;;;9.60;99.90;;;;;;5448217;26;19924;-56
2024/04/16 06:43:51;;;;;;;;;;;9.30;99.90;;;;;;5452770;26;20021;-56
2024/04/16 06:46:16;;;;;;;2.95;0.50;;;9.20;99.90;;;;;;5451186;26;19924;-56
2024/04/16 06:48:42;;;;;;;;;;;9.10;99.90;;;;;;5463475;26;20078;-56
2024/04/16 06:51:08;;;;;;;2.13;0.60;;;9.00;99.90;;;;;;5465074;26;19925;-56
2024/04/16 06:53:33;;;;;;;;;;;9.00;99.90;;;;;;5451670;26;20042;-54
2024/04/16 06:56:04;;;;;;;2.13;0.60;;;8.40;99.90;;;;;;5449713;26;20363;-56
2024/04/16 06:58:30;;;;;;;3.88;0.40;;;9.10;99.90;;;;;;5450943;26;20015;-56
2024/04/16 07:00:57;;;;;;;2.10;0.70;;;9.30;99.90;;;;;;5451112;26;20007;-56
2024/04/16 07:03:23;;;;;;;2.60;0.73;;;9.40;99.90;;;;;;5476578;26;20020;-56
2024/04/16 07:05:49;;;;;;;2.13;0.70;;;10.80;99.90;;;;;;5463885;26;20045;-55
2024/04/16 07:08:15;;;;;;;1.75;0.70;;;11.20;99.90;;;;;;5463507;26;20023;-55
2024/04/16 07:10:42;;;;;;;3.17;0.80;;;12.60;99.90;;;;;;5449047;26;20013;-57
2024/04/16 07:13:08;;;;;;;3.38;0.63;;;14.20;99.90;;;;;;5449660;26;20048;-57
2024/04/16 07:15:33;;;;;;;1.85;0.50;;;15.00;99.90;;;;;;5451021;26;20003;-56
2024/04/16 07:17:59;;;;;;;1.10;0.50;;;14.90;99.90;;;;;;5449206;26;20642;-57
2024/04/16 07:20:26;;;;;;;1.85;0.50;;;13.00;99.90;;;;;;5450965;26;20007;-57
2024/04/16 07:22:51;;;;;;;1.15;0.40;;;14.00;99.90;;;;;;5475828;26;20042;-56
2024/04/16 07:25:18;;;;;;;2.17;0.60;;;13.50;99.90;;;;;;5450200;26;20018;-57
2024/04/16 07:27:44;;;;;;;2.20;0.70;;;13.10;99.90;;;;;;5450274;26;20007;-57
2024/04/16 07:30:10;;;;;;;2.08;0.60;;;14.80;99.90;;;;;;5450623;26;20013;-57
2024/04/16 07:32:36;;;;;;;1.67;0.60;;;12.50;99.90;;;;;;5449394;26;20334;-57
2024/04/16 07:35:01;;;;;;;1.35;0.50;;;12.30;99.90;;;;;;5486241;26;20022;-57
2024/04/16 07:37:27;;;;;;;1.98;0.65;;;12.30;99.90;;;;;;5485165;26;20021;-57
2024/04/16 07:39:53;;;;;;;0.93;0.50;;;12.10;99.90;;;;;;5479284;26;20003;-57
2024/04/16 07:42:19;;;;;;;3.10;0.70;;;12.50;99.90;;;;;;5465974;26;20017;-57
2024/04/16 07:44:44;;;;;;;3.72;0.45;;;13.40;99.90;;;;;;5457868;26;20339;-57
2024/04/16 07:47:10;;;;;;;2.22;0.50;;;13.80;99.90;;;;;;5449061;26;20007;-57
2024/04/16 07:49:36;;;;;;;2.65;0.50;;;13.70;99.90;;;;;;5475332;26;20019;-57
2024/04/16 07:52:02;;;;;;;1.35;0.40;;;13.90;99.90;;;;;;5450266;26;20017;-57
2024/04/16 07:54:27;;;;;;;0.80;0.65;;;14.30;99.90;;;;;;5449839;26;20014;-58
2024/04/16 07:56:53;;;;;;;2.22;0.43;;;14.30;99.50;;;;;;5449723;26;20026;-57
2024/04/16 07:59:41;;;;;;;1.50;0.43;;;14.10;99.90;;;;;;5450179;26;20011;-56
2024/04/16 08:02:07;;;;;;;2.10;0.40;;;13.80;99.40;;;;;;5449980;26;20007;-59
2024/04/16 08:04:33;;;;;;;4.90;0.50;;;13.90;99.90;;;;;;5469467;26;20014;-57
2024/04/16 08:06:58;;;;;;;1.75;0.60;;;13.90;99.90;;;;;;5483179;26;20499;-56
2024/04/16 08:09:24;;;;;;;2.53;0.47;;;15.20;96.40;;;;;;5468453;26;20007;-58
2024/04/16 08:11:50;;;;;;;1.77;0.40;;;16.40;98.70;;;;;;5449971;26;20030;-58
2024/04/16 08:14:18;;;;;;;1.27;0.30;;;18.00;96.70;;;;;;5475457;26;20015;-58
2024/04/16 08:16:44;;;;;;;2.85;0.47;;;19.10;1.00;;;;;;5466856;26;20025;-58
2024/04/16 08:19:10;;;;;;;2.22;0.45;;;19.80;1.00;;;;;;5458247;26;20003;-59
2024/04/16 08:21:36;;;;;;;1.92;0.40;;;20.00;99.90;;;;;;5449840;26;20003;-58
2024/04/16 08:24:01;;;;;;;2.42;0.40;;;20.40;26.40;;;;;;5448260;26;20046;-57
2024/04/16 08:26:27;;;;;;;0.98;0.40;;;20.00;99.90;;;;;;5446814;26;20015;-57
2024/04/16 08:28:53;;;;;;;4.32;0.50;;;20.90;1.00;;;;;;5449977;26;20018;-58
2024/04/16 08:31:18;;;;;;;1.23;0.40;;;21.00;99.90;;;;;;5449824;26;20007;-58
2024/04/16 08:33:44;;;;;;;1.95;0.40;;;21.20;1.00;;;;;;5449761;26;20017;-58
2024/04/16 08:36:10;;;;;;;0.88;0.30;;;21.10;81.20;;;;;;5450638;26;20003;-58
2024/04/16 08:38:35;;;;;;;0.43;0.30;;;21.00;1.00;;;;;;5473460;26;20042;-59
2024/04/16 08:41:04;;;;;;;3.55;0.50;;;20.80;99.90;;;;;;5445559;26;20459;-58
2024/04/16 08:43:33;;;;;;;2.03;0.32;;;20.20;99.90;;;;;;5449710;26;20006;-58
2024/04/16 08:46:01;;;;;;;1.27;0.40;;;21.10;99.90;;;;;;5471319;26;20398;-57
2024/04/16 08:48:29;;;;;;;3.50;0.52;;;21.60;99.90;;;;;;5459633;26;20017;-59
2024/04/16 08:50:57;;;;;;;0.98;0.30;;;22.10;99.90;;;;;;5466787;26;20454;-58
2024/04/16 08:53:24;;;;;;;2.22;0.30;;;23.50;99.90;;;;;;5449262;26;20011;-59
2024/04/16 08:55:50;;;;;;;2.47;0.40;;;24.70;1.00;;;;;;5448374;26;20006;-58
2024/04/16 08:58:16;;;;;;;0.57;0.30;;;25.60;1.00;;;;;;5449561;26;20116;-57
2024/04/16 09:00:43;;;;;;;2.55;0.43;;;24.90;1.00;;;;;;5462287;26;20006;-58
2024/04/16 09:03:09;;;;;;;1.42;0.30;;;25.70;1.00;;;;;;5461780;26;20347;-58
2024/04/16 09:05:35;;;;;;;0.95;0.35;;;24.50;1.00;;;;;;5449054;26;20017;-59
2024/04/16 09:08:01;;;;;;;0.75;0.30;;;25.10;1.00;;;;;;5448573;26;19999;-58
2024/04/16 09:10:27;;;;;;;4.13;0.55;;;25.30;1.00;;;;;;5448379;26;20021;-58
2024/04/16 09:12:54;;;;;;;2.42;0.30;;;25.20;1.00;;;;;;5472526;26;20003;-59
2024/04/16 09:15:21;;;;;;;0.75;0.30;;;25.20;1.00;;;;;;5449254;26;20013;-58
2024/04/16 09:17:48;;;;;;;1.55;0.40;;;23.80;1.00;;;;;;5480923;26;20477;-58
2024/04/16 09:20:17;;;;;;;1.63;0.30;;;22.60;99.90;;;;;;5483584;26;20002;-58
2024/04/16 09:22:43;;;;;;;1.08;0.25;;;21.10;1.00;;;;;;5455223;26;20006;-58
2024/04/16 09:25:08;;;;;;;2.00;0.40;;;20.20;99.90;;;;;;5448423;26;20373;-58
2024/04/16 09:27:34;;;;;;;2.70;0.30;;;20.10;1.00;;;;;;5448833;26;20022;-59
2024/04/16 09:30:10;;;;;;;0.75;0.20;;;20.60;99.90;;;;;;5473848;26;20022;-59
2024/04/16 09:32:40;;;;;;;1.20;0.35;;;20.70;99.90;;;;;;5449024;26;20079;-58
2024/04/16 09:35:06;;;;;;;1.50;0.40;;;21.10;99.90;;;;;;5448894;26;20003;-58
2024/04/16 09:37:32;;;;;;;1.73;0.32;;;22.50;1.00;;;;;;5447059;26;20007;-58
2024/04/16 09:39:59;;;;;;;1.75;0.60;;;22.90;78.60;;;;;;5455495;26;20473;-58
2024/04/16 09:42:31;;;;;;;1.40;0.40;;;22.80;83.50;;;;;;5484854;26;20006;-59
2024/04/16 09:44:58;;;;;;;1.15;0.40;;;22.40;99.90;;;;;;5452591;26;20003;-59
2024/04/16 09:47:25;;;;;;;0.98;0.40;;;21.90;1.00;;;;;;5449073;26;20018;-58
2024/04/16 09:49:55;;;;;;;2.45;0.43;;;21.70;99.90;;;;;;5452377;26;20015;-58
2024/04/16 09:52:21;;;;;;;1.48;0.40;;;21.20;48.20;;;;;;5448370;26;20003;-58
2024/04/16 09:54:49;;;;;;;3.45;0.38;;;21.80;99.90;;;;;;5447582;26;20017;-58
2024/04/16 09:57:15;;;;;;;1.10;0.40;;;22.50;1.00;;;;;;5446310;26;20007;-58
2024/04/16 09:59:41;;;;;;;3.65;0.30;;;21.20;99.90;;;;;;5448527;26;20038;-59
2024/04/16 10:02:11;;;;;;;0.95;0.45;;;19.60;99.90;;;;;;5448143;26;20068;-58
2024/04/16 10:04:37;;;;;;;2.70;0.45;;;19.00;1.00;;;;;;5468790;26;20017;-57
2024/04/16 10:07:03;;;;;;;1.65;0.40;;;19.20;99.90;;;;;;5476814;26;20007;-58
2024/04/16 10:09:30;;;;;;;1.52;0.40;;;20.50;1.00;;;;;;5452633;26;20034;-58
2024/04/16 10:11:56;;;;;;;2.90;0.43;;;20.90;1.00;;;;;;5446436;26;20025;-58
2024/04/16 10:14:24;;;;;;;2.58;0.40;;;22.10;99.90;;;;;;5478003;26;20014;-58
2024/04/16 10:16:50;;;;;;;2.05;0.35;;;23.00;99.90;;;;;;5466951;26;20006;-59
2024/04/16 10:19:17;;;;;;;3.95;0.40;;;22.40;1.00;;;;;;5447835;26;20015;-58
2024/04/16 10:21:47;;;;;;;1.05;0.40;;;21.70;1.00;;;;;;5448009;26;20340;-58
2024/04/16 10:24:16;;;;;;;2.00;0.30;;;20.50;99.90;;;;;;5446277;26;20056;-59
2024/04/16 10:26:43;;;;;;;2.17;0.30;;;19.90;97.50;;;;;;5446829;26;20018;-58
2024/04/16 10:29:23;;;;;;;1.85;0.38;;;19.20;1.00;;;;;;5472092;26;20513;-58
2024/04/16 10:31:50;;;;;;;0.88;0.28;;;18.60;1.00;;;;;;5471358;26;20007;-57
2024/04/16 10:34:26;;;;;;;0.85;0.30;;;18.10;1.00;;;;;;5448055;26;20081;-59
2024/04/16 10:36:55;;;;;;;1.23;0.30;;;18.10;50.30;;;;;;5460213;26;20010;-58
2024/04/16 10:39:33;;;;;;;0.65;0.25;;;17.90;1.00;;;;;;5457827;26;20010;-59
2024/04/16 10:42:02;;;;;;;1.27;0.30;;;18.40;99.90;;;;;;5447434;26;20015;-58
2024/04/16 10:44:28;;;;;;;1.95;0.30;;;18.80;99.90;;;;;;5447696;26;20007;-58
2024/04/16 10:46:56;;;;;;;1.85;0.43;;;18.70;99.90;;;;;;5447700;26;20006;-58
2024/04/16 10:49:25;;;;;;;1.98;0.40;;;18.70;99.90;;;;;;5452942;26;20003;-59
2024/04/16 10:51:51;;;;;;;1.48;0.20;;;19.10;99.90;;;;;;5447128;26;20007;-59
2024/04/16 10:54:18;;;;;;;3.20;0.40;;;19.10;4.40;;;;;;5445920;26;20454;-58
2024/04/16 10:56:45;;;;;;;1.88;0.45;;;19.20;99.90;;;;;;5449996;26;20007;-59
2024/04/16 10:59:14;;;;;;;1.70;0.50;;;19.70;96.50;;;;;;5466966;26;20007;-59
2024/04/16 11:01:42;;;;;;;3.20;0.30;;;19.90;1.00;;;;;;5446975;26;20018;-59
2024/04/16 11:04:17;;;;;;;3.47;0.40;;;20.30;99.90;;;;;;5449162;26;20454;-59
2024/04/16 11:06:45;;;;;;;1.17;0.40;;;19.90;99.90;;;;;;5450418;26;20022;-59
2024/04/16 11:09:12;;;;;;;1.17;0.30;;;20.00;1.00;;;;;;5458020;26;20033;-58
2024/04/16 11:11:39;;;;;;;0.80;0.40;;;20.60;99.90;;;;;;5450051;26;20090;-59
2024/04/16 11:14:07;;;;;;;5.88;0.50;;;20.40;1.00;;;;;;5474871;26;20006;-58
2024/04/16 11:16:33;;;;;;;4.78;0.70;;;19.80;1.00;;;;;;5451219;26;19998;-59
2024/04/16 11:19:00;;;;;;;3.47;0.60;;;19.50;99.90;;;;;;5450877;26;20007;-60
2024/04/16 11:21:29;;;;;;;2.42;0.60;;;19.60;96.70;;;;;;5450459;26;20007;-58
2024/04/16 11:23:57;;;;;;;2.85;0.60;;;19.30;29.10;;;;;;5449482;26;20167;-59
2024/04/16 11:26:23;;;;;;;2.63;0.50;;;19.50;99.90;;;;;;5449300;26;20014;-60
2024/04/16 11:28:50;;;;;;;2.47;0.70;;;19.20;99.90;;;;;;5451169;26;20021;-58
2024/04/16 11:31:17;;;;;;;3.88;0.57;;;18.20;99.90;;;;;;5450562;26;20021;-58
2024/04/16 11:33:44;;;;;;;2.75;0.68;;;17.80;1.00;;;;;;5466645;26;20006;-58
2024/04/16 11:36:10;;;;;;;2.70;0.70;;;17.10;99.90;;;;;;5459266;26;20244;-57
2024/04/16 11:38:36;;;;;;;2.55;0.77;;;16.40;39.40;;;;;;5450792;26;20018;-58
2024/04/16 11:41:03;;;;;;;3.55;0.68;;;16.00;27.80;;;;;;5449651;26;20018;-58
2024/04/16 11:43:35;;;;;;;1.88;0.60;;;15.50;99.90;;;;;;5450692;26;20006;-58
2024/04/16 11:46:04;;;;;;;3.20;0.55;;;15.10;1.00;;;;;;5450402;26;20409;-58
2024/04/16 11:48:30;;;;;;;1.45;0.50;;;15.20;63.60;;;;;;5469354;26;20026;-58
2024/04/16 11:50:57;;;;;;;2.85;0.70;;;15.20;89.60;;;;;;5450352;26;20039;-58
2024/04/16 11:53:23;;;;;;;2.35;0.50;;;15.30;92.90;;;;;;5450207;26;20007;-58
2024/04/16 11:55:49;;;;;;;2.33;0.50;;;15.30;92.60;;;;;;5449014;26;20079;-58
2024/04/16 11:58:16;;;;;;;1.45;0.50;;;15.50;94.70;;;;;;5449898;26;20458;-59
2024/04/16 12:00:41;;;;;;;1.75;0.50;;;15.70;91.80;;;;;;5462895;26;20006;-58
2024/04/16 12:03:07;;;;;;;1.85;0.32;;;16.20;94.80;;;;;;5486572;26;20006;-59
2024/04/16 12:05:34;;;;;;;1.40;0.40;;;16.40;94.60;;;;;;5482843;26;20553;-58
2024/04/16 12:08:03;;;;;;;1.75;0.60;;;16.90;95.70;;;;;;5449852;26;20002;-58
2024/04/16 12:10:29;;;;;;;1.73;0.40;;;17.30;96.80;;;;;;5449236;26;20038;-58
2024/04/16 12:12:55;;;;;;;2.83;0.60;;;17.60;94.70;;;;;;5475037;26;20007;-58
2024/04/16 12:15:20;;;;;;;5.72;0.75;;;17.40;95.90;;;;;;5463398;26;20022;-58
2024/04/16 12:17:47;;;;;;;4.30;0.70;;;17.50;95.80;;;;;;5466043;26;20009;-58
2024/04/16 12:20:13;;;;;;;1.85;0.50;;;17.30;93.50;;;;;;5474599;26;20007;-61
2024/04/16 12:22:39;;;;;;;2.42;0.50;;;17.30;94.00;;;;;;5458208;26;20026;-60
2024/04/16 12:25:04;;;;;;;1.63;0.60;;;16.90;92.60;;;;;;5447742;26;20108;-60
2024/04/16 12:27:30;;;;;;;1.05;0.60;;;16.80;91.50;;;;;;5449245;26;20415;-60
2024/04/16 12:29:57;;;;;;;1.92;0.68;;;16.80;92.60;;;;;;5449230;26;20048;-62
2024/04/16 12:32:23;;;;;;;5.03;0.80;;;17.10;97.90;;;;;;5449814;26;20563;-60
2024/04/16 12:34:48;;;;;;;2.00;0.90;;;17.30;96.60;;;;;;5456393;26;20006;-61
2024/04/16 12:37:14;;;;;;;3.92;0.85;;;17.10;97.30;;;;;;5467934;26;20021;-60
2024/04/16 12:39:40;;;;;;;2.20;0.80;;;16.70;96.10;;;;;;5474201;26;20359;-60
2024/04/16 12:42:06;;;;;;;1.88;0.68;;;16.30;94.70;;;;;;5471121;26;20006;-60
2024/04/16 12:44:31;;;;;;;2.47;0.90;;;16.10;90.40;;;;;;5459194;26;20014;-60
2024/04/16 12:46:57;;;;;;;2.55;0.80;;;16.00;94.50;;;;;;5474724;26;20021;-60
2024/04/16 12:49:24;;;;;;;5.38;1.35;;;16.10;95.70;;;;;;5470627;26;20069;-60
2024/04/16 12:51:51;;;;;;;5.72;1.40;;;16.00;96.20;;;;;;5452774;26;20006;-59
2024/04/16 12:54:20;;;;;;;6.80;1.83;;;15.80;97.20;;;;;;5449730;26;20007;-59
2024/04/16 12:56:48;;;;;;;7.05;1.85;;;15.60;95.80;;;;;;5452641;26;20007;-59
2024/04/16 12:59:18;;;;;;;6.07;1.83;;;15.20;95.50;;;;;;5467821;26;20018;-59
2024/04/16 13:01:44;;;;;;;6.78;2.00;;;15.10;97.80;;;;;;5474170;26;20149;-59
2024/04/16 13:04:09;;;;;;;4.53;1.95;;;14.90;97.50;;;;;;5449462;26;20006;-60
2024/04/16 13:06:35;;;;;;;7.00;2.25;;;14.60;97.20;;;;;;5449190;26;20442;-59
2024/04/16 13:09:02;;;;;;;7.90;2.30;;;14.50;93.40;;;;;;5448568;26;20010;-59
2024/04/16 13:11:28;;;;;;;6.22;2.08;;;14.40;97.60;;;;;;5484382;26;20006;-61
2024/04/16 13:13:54;;;;;;;7.40;2.15;;;14.20;96.60;;;;;;5460465;26;20463;-60